Terminal Aerodrome Forecast
Issued by NWS

Home | Current Version | Previous Version | Text Only | Print | Product List | Glossary On
Versions: 1 2 3 4 5 6 7 8 9 10 11 12 13 14 15 16 17
000
FTUS44 KHGX 241319 AAA
TAFCXO
TAF AMD
KCXO 241319Z 2413/2512 18003KT P6SM SCT015 BKN030
     FM241500 23007KT P6SM FEW015 SCT030
     FM242000 31006G16KT P6SM SKC
     FM250600 35005KT P6SM SKC=

USA.gov is the U.S. government's official web portal to all federal, state and local government web resources and services.